sensor_id;sensor_type;location;lat;lon;timestamp;pressure;altitude;pressure_sealevel;temperature;humidity
11648;BME280;5880;52.342;9.662;2023-01-26T00:01:15;101864.78;;;4.08;54.55
11648;BME280;5880;52.342;9.662;2023-01-26T00:03:41;101863.41;;;4.04;54.35
11648;BME280;5880;52.342;9.662;2023-01-26T00:06:10;101860.56;;;4.05;54.52
11648;BME280;5880;52.342;9.662;2023-01-26T00:08:41;101855.28;;;4.04;54.45
11648;BME280;5880;52.342;9.662;2023-01-26T00:11:10;101857.16;;;4.03;54.27
11648;BME280;5880;52.342;9.662;2023-01-26T00:13:36;101851.88;;;4.01;54.39
11648;BME280;5880;52.342;9.662;2023-01-26T00:16:03;101851.88;;;4.01;54.82
11648;BME280;5880;52.342;9.662;2023-01-26T00:18:30;101855.44;;;4.02;54.46
11648;BME280;5880;52.342;9.662;2023-01-26T00:21:01;101852.72;;;4.02;54.51
11648;BME280;5880;52.342;9.662;2023-01-26T00:23:29;101846.63;;;4.00;54.73
11648;BME280;5880;52.342;9.662;2023-01-26T00:25:55;101835.66;;;4.01;54.53
11648;BME280;5880;52.342;9.662;2023-01-26T00:28:21;101822.97;;;4.02;54.49
11648;BME280;5880;52.342;9.662;2023-01-26T00:30:48;101820.44;;;4.00;54.62
11648;BME280;5880;52.342;9.662;2023-01-26T00:33:14;101824.13;;;3.99;54.36
11648;BME280;5880;52.342;9.662;2023-01-26T00:35:40;101823.16;;;4.00;54.60
11648;BME280;5880;52.342;9.662;2023-01-26T00:38:10;101807.91;;;3.99;54.70
11648;BME280;5880;52.342;9.662;2023-01-26T00:40:37;101823.28;;;3.99;54.24
11648;BME280;5880;52.342;9.662;2023-01-26T00:43:02;101817.03;;;3.98;54.19
11648;BME280;5880;52.342;9.662;2023-01-26T00:45:28;101812.63;;;3.97;54.69
11648;BME280;5880;52.342;9.662;2023-01-26T00:47:54;101793.66;;;3.89;54.38
11648;BME280;5880;52.342;9.662;2023-01-26T00:50:19;101811.28;;;3.93;54.17
11648;BME280;5880;52.342;9.662;2023-01-26T00:52:45;101807.69;;;3.93;54.71
11648;BME280;5880;52.342;9.662;2023-01-26T00:55:11;101792.13;;;3.87;54.51
11648;BME280;5880;52.342;9.662;2023-01-26T00:57:36;101801.44;;;3.92;54.88
11648;BME280;5880;52.342;9.662;2023-01-26T01:00:04;101802.13;;;3.94;54.38
11648;BME280;5880;52.342;9.662;2023-01-26T01:02:31;101793.00;;;3.95;54.32
11648;BME280;5880;52.342;9.662;2023-01-26T01:04:56;101799.44;;;3.94;54.37
11648;BME280;5880;52.342;9.662;2023-01-26T01:07:22;101800.28;;;3.95;54.79
11648;BME280;5880;52.342;9.662;2023-01-26T01:09:48;101796.72;;;3.94;54.74
11648;BME280;5880;52.342;9.662;2023-01-26T01:12:14;101793.16;;;3.94;54.77
11648;BME280;5880;52.342;9.662;2023-01-26T01:14:40;101786.22;;;3.91;54.61
11648;BME280;5880;52.342;9.662;2023-01-26T01:17:05;101791.16;;;3.96;54.51
11648;BME280;5880;52.342;9.662;2023-01-26T01:19:31;101782.03;;;3.97;54.51
11648;BME280;5880;52.342;9.662;2023-01-26T01:21:57;101780.16;;;3.97;54.65
11648;BME280;5880;52.342;9.662;2023-01-26T01:24:22;101773.91;;;3.97;54.81
11648;BME280;5880;52.342;9.662;2023-01-26T01:26:48;101790.69;;;4.00;54.49
11648;BME280;5880;52.342;9.662;2023-01-26T01:29:14;101793.22;;;4.02;54.91
11648;BME280;5880;52.342;9.662;2023-01-26T01:31:40;101779.69;;;4.02;54.92
11648;BME280;5880;52.342;9.662;2023-01-26T01:34:07;101774.44;;;4.00;54.34
11648;BME280;5880;52.342;9.662;2023-01-26T01:36:33;101762.94;;;3.98;54.70
11648;BME280;5880;52.342;9.662;2023-01-26T01:38:58;101781.88;;;3.98;54.63
11648;BME280;5880;52.342;9.662;2023-01-26T01:41:24;101782.72;;;3.99;54.82
11648;BME280;5880;52.342;9.662;2023-01-26T01:43:50;101775.59;;;3.98;54.67
11648;BME280;5880;52.342;9.662;2023-01-26T01:46:36;101762.06;;;3.98;54.43
11648;BME280;5880;52.342;9.662;2023-01-26T01:49:18;101758.38;;;3.99;54.60
11648;BME280;5880;52.342;9.662;2023-01-26T01:52:00;101754.81;;;3.98;54.79
11648;BME280;5880;52.342;9.662;2023-01-26T01:54:39;101751.94;;;4.00;54.75
11648;BME280;5880;52.342;9.662;2023-01-26T01:57:12;101747.22;;;4.02;54.81
11648;BME280;5880;52.342;9.662;2023-01-26T01:59:54;101743.31;;;4.05;54.84
11648;BME280;5880;52.342;9.662;2023-01-26T02:02:22;101739.09;;;4.02;54.60
11648;BME280;5880;52.342;9.662;2023-01-26T02:04:47;101733.38;;;4.05;55.08
11648;BME280;5880;52.342;9.662;2023-01-26T02:07:13;101739.63;;;4.06;54.92
11648;BME280;5880;52.342;9.662;2023-01-26T02:09:40;101750.13;;;4.09;54.99
11648;BME280;5880;52.342;9.662;2023-01-26T02:12:29;101753.50;;;4.11;55.12
11648;BME280;5880;52.342;9.662;2023-01-26T02:14:57;101735.25;;;4.13;55.29
11648;BME280;5880;52.342;9.662;2023-01-26T02:17:23;101727.28;;;4.11;55.38
11648;BME280;5880;52.342;9.662;2023-01-26T02:20:04;101730.88;;;4.20;55.33
11648;BME280;5880;52.342;9.662;2023-01-26T02:22:51;101726.31;;;4.20;55.33
11648;BME280;5880;52.342;9.662;2023-01-26T02:26:06;101728.03;;;4.21;54.64
11648;BME280;5880;52.342;9.662;2023-01-26T02:28:33;101730.88;;;4.20;54.96
11648;BME280;5880;52.342;9.662;2023-01-26T02:30:59;101710.56;;;4.16;55.25
11648;BME280;5880;52.342;9.662;2023-01-26T02:33:28;101729.03;;;4.20;54.82
11648;BME280;5880;52.342;9.662;2023-01-26T02:35:55;101722.78;;;4.20;55.14
11648;BME280;5880;52.342;9.662;2023-01-26T02:38:26;101716.19;;;4.22;55.15
11648;BME280;5880;52.342;9.662;2023-01-26T02:40:57;101719.72;;;4.23;55.04
11648;BME280;5880;52.342;9.662;2023-01-26T02:43:26;101714.81;;;4.18;55.07
11648;BME280;5880;52.342;9.662;2023-01-26T02:45:53;101724.31;;;4.22;54.86
11648;BME280;5880;52.342;9.662;2023-01-26T02:48:18;101723.28;;;4.23;55.34
11648;BME280;5880;52.342;9.662;2023-01-26T02:51:04;101717.22;;;4.21;54.95
11648;BME280;5880;52.342;9.662;2023-01-26T02:53:30;101714.16;;;4.25;55.08
11648;BME280;5880;52.342;9.662;2023-01-26T02:55:55;101720.41;;;4.25;55.18
11648;BME280;5880;52.342;9.662;2023-01-26T02:58:21;101723.81;;;4.27;55.09
11648;BME280;5880;52.342;9.662;2023-01-26T03:00:46;101719.25;;;4.28;55.34
11648;BME280;5880;52.342;9.662;2023-01-26T03:03:27;101714.50;;;4.30;55.10
11648;BME280;5880;52.342;9.662;2023-01-26T03:06:11;101725.50;;;4.28;54.97
11648;BME280;5880;52.342;9.662;2023-01-26T03:08:38;101716.53;;;4.28;55.38
11648;BME280;5880;52.342;9.662;2023-01-26T03:11:06;101724.16;;;4.32;55.09
11648;BME280;5880;52.342;9.662;2023-01-26T03:13:32;101721.28;;;4.34;55.23
11648;BME280;5880;52.342;9.662;2023-01-26T03:15:58;101729.22;;;4.35;55.48
11648;BME280;5880;52.342;9.662;2023-01-26T03:18:33;101727.41;;;4.36;55.24
11648;BME280;5880;52.342;9.662;2023-01-26T03:21:18;101716.72;;;4.34;55.32
11648;BME280;5880;52.342;9.662;2023-01-26T03:24:03;101712.34;;;4.33;55.29
11648;BME280;5880;52.342;9.662;2023-01-26T03:26:47;101702.84;;;4.29;55.31
11648;BME280;5880;52.342;9.662;2023-01-26T03:29:33;101705.06;;;4.34;55.57
11648;BME280;5880;52.342;9.662;2023-01-26T03:31:59;101711.16;;;4.36;55.61
11648;BME280;5880;52.342;9.662;2023-01-26T03:34:25;101701.00;;;4.38;55.25
11648;BME280;5880;52.342;9.662;2023-01-26T03:36:51;101707.78;;;4.42;55.31
11648;BME280;5880;52.342;9.662;2023-01-26T03:39:17;101704.91;;;4.43;55.43
11648;BME280;5880;52.342;9.662;2023-01-26T03:42:01;101705.25;;;4.40;55.48
11648;BME280;5880;52.342;9.662;2023-01-26T03:44:47;101703.88;;;4.44;55.44
11648;BME280;5880;52.342;9.662;2023-01-26T03:47:32;101708.31;;;4.46;55.72
11648;BME280;5880;52.342;9.662;2023-01-26T03:50:16;101697.63;;;4.44;55.38
11648;BME280;5880;52.342;9.662;2023-01-26T03:53:01;101691.38;;;4.43;55.63
11648;BME280;5880;52.342;9.662;2023-01-26T03:55:45;101693.06;;;4.44;55.58
11648;BME280;5880;52.342;9.662;2023-01-26T03:58:29;101691.38;;;4.43;55.53
11648;BME280;5880;52.342;9.662;2023-01-26T04:00:56;101697.47;;;4.46;55.64
11648;BME280;5880;52.342;9.662;2023-01-26T04:03:21;101699.00;;;4.48;55.70
11648;BME280;5880;52.342;9.662;2023-01-26T04:06:06;101688.31;;;4.47;55.46
11648;BME280;5880;52.342;9.662;2023-01-26T04:08:50;101695.44;;;4.48;55.61
11648;BME280;5880;52.342;9.662;2023-01-26T04:11:16;101697.13;;;4.49;55.74
11648;BME280;5880;52.342;9.662;2023-01-26T04:13:41;101683.25;;;4.43;55.23
11648;BME280;5880;52.342;9.662;2023-01-26T04:16:26;101690.03;;;4.48;55.38
11648;BME280;5880;52.342;9.662;2023-01-26T04:19:10;101678.34;;;4.39;55.59
11648;BME280;5880;52.342;9.662;2023-01-26T04:21:54;101689.16;;;4.39;55.36
11648;BME280;5880;52.342;9.662;2023-01-26T04:24:20;101686.78;;;4.36;55.24
11648;BME280;5880;52.342;9.662;2023-01-26T04:26:47;101686.59;;;4.37;55.67
11648;BME280;5880;52.342;9.662;2023-01-26T04:29:15;101676.47;;;4.39;55.64
11648;BME280;5880;52.342;9.662;2023-01-26T04:31:41;101672.56;;;4.42;55.96
11648;BME280;5880;52.342;9.662;2023-01-26T04:34:13;101670.56;;;4.44;55.90
11648;BME280;5880;52.342;9.662;2023-01-26T04:36:39;101673.09;;;4.46;55.68
11648;BME280;5880;52.342;9.662;2023-01-26T04:39:05;101660.91;;;4.41;55.72
11648;BME280;5880;52.342;9.662;2023-01-26T04:41:31;101667.69;;;4.46;55.82
11648;BME280;5880;52.342;9.662;2023-01-26T04:43:57;101662.44;;;4.44;55.64
11648;BME280;5880;52.342;9.662;2023-01-26T04:46:23;101668.88;;;4.51;55.75
11648;BME280;5880;52.342;9.662;2023-01-26T04:48:50;101670.56;;;4.52;55.93
11648;BME280;5880;52.342;9.662;2023-01-26T04:51:18;101663.63;;;4.50;55.79
11648;BME280;5880;52.342;9.662;2023-01-26T04:53:46;101673.78;;;4.56;55.81
11648;BME280;5880;52.342;9.662;2023-01-26T04:58:52;101666.34;;;4.58;55.68
11648;BME280;5880;52.342;9.662;2023-01-26T05:01:19;101677.84;;;4.60;55.92
11648;BME280;5880;52.342;9.662;2023-01-26T05:03:45;101681.41;;;4.60;55.80
11648;BME280;5880;52.342;9.662;2023-01-26T05:06:11;101672.44;;;4.60;55.77
11648;BME280;5880;52.342;9.662;2023-01-26T05:08:37;101664.31;;;4.60;55.72
11648;BME280;5880;52.342;9.662;2023-01-26T05:11:04;101661.47;;;4.61;55.95
11648;BME280;5880;52.342;9.662;2023-01-26T05:13:30;101654.16;;;4.62;55.44
11648;BME280;5880;52.342;9.662;2023-01-26T05:15:56;101656.88;;;4.62;55.72
11648;BME280;5880;52.342;9.662;2023-01-26T05:18:22;101658.75;;;4.61;55.68
11648;BME280;5880;52.342;9.662;2023-01-26T05:20:48;101659.75;;;4.60;55.87
11648;BME280;5880;52.342;9.662;2023-01-26T05:23:14;101667.72;;;4.62;55.36
11648;BME280;5880;52.342;9.662;2023-01-26T05:25:40;101666.00;;;4.61;55.64
11648;BME280;5880;52.342;9.662;2023-01-26T05:28:05;101669.72;;;4.60;55.64
11648;BME280;5880;52.342;9.662;2023-01-26T05:30:31;101668.06;;;4.59;55.66
11648;BME280;5880;52.342;9.662;2023-01-26T05:33:05;101666.19;;;4.59;55.68
11648;BME280;5880;52.342;9.662;2023-01-26T05:35:31;101662.28;;;4.54;55.93
11648;BME280;5880;52.342;9.662;2023-01-26T05:37:57;101662.13;;;4.55;55.81
11648;BME280;5880;52.342;9.662;2023-01-26T05:40:24;101661.28;;;4.55;55.58
11648;BME280;5880;52.342;9.662;2023-01-26T05:42:51;101658.72;;;4.53;55.74
11648;BME280;5880;52.342;9.662;2023-01-26T05:45:17;101667.88;;;4.52;55.73
11648;BME280;5880;52.342;9.662;2023-01-26T05:47:44;101669.06;;;4.50;55.40
11648;BME280;5880;52.342;9.662;2023-01-26T05:50:12;101671.56;;;4.43;55.67
11648;BME280;5880;52.342;9.662;2023-01-26T05:52:38;101674.78;;;4.47;55.82
11648;BME280;5880;52.342;9.662;2023-01-26T05:55:05;101673.09;;;4.46;55.80
11648;BME280;5880;52.342;9.662;2023-01-26T05:57:31;101678.66;;;4.44;55.93
11648;BME280;5880;52.342;9.662;2023-01-26T05:59:57;101679.50;;;4.44;55.65
11648;BME280;5880;52.342;9.662;2023-01-26T06:02:23;101683.25;;;4.43;55.82
11648;BME280;5880;52.342;9.662;2023-01-26T06:04:51;101676.16;;;4.42;55.93
11648;BME280;5880;52.342;9.662;2023-01-26T06:07:17;101683.25;;;4.43;55.71
11648;BME280;5880;52.342;9.662;2023-01-26T06:09:43;101670.75;;;4.42;56.17
11648;BME280;5880;52.342;9.662;2023-01-26T06:12:19;101672.25;;;4.45;56.03
11648;BME280;5880;52.342;9.662;2023-01-26T06:14:45;101673.25;;;4.44;56.13
11648;BME280;5880;52.342;9.662;2023-01-26T06:17:13;101674.09;;;4.44;56.15
11648;BME280;5880;52.342;9.662;2023-01-26T06:19:39;101678.50;;;4.46;55.93
11648;BME280;5880;52.342;9.662;2023-01-26T06:22:10;101660.06;;;4.41;56.15
11648;BME280;5880;52.342;9.662;2023-01-26T06:24:36;101679.19;;;4.48;55.93
11648;BME280;5880;52.342;9.662;2023-01-26T06:27:02;101671.91;;;4.48;56.24
11648;BME280;5880;52.342;9.662;2023-01-26T06:29:31;101660.94;;;4.50;56.39
11648;BME280;5880;52.342;9.662;2023-01-26T06:31:59;101677.84;;;4.52;56.07
11648;BME280;5880;52.342;9.662;2023-01-26T06:34:25;101666.00;;;4.53;56.01
11648;BME280;5880;52.342;9.662;2023-01-26T06:36:50;101678.50;;;4.54;56.36
11648;BME280;5880;52.342;9.662;2023-01-26T06:39:16;101682.09;;;4.54;56.37
11648;BME280;5880;52.342;9.662;2023-01-26T06:41:42;101679.03;;;4.57;56.32
11648;BME280;5880;52.342;9.662;2023-01-26T06:44:11;101678.88;;;4.59;56.34
11648;BME280;5880;52.342;9.662;2023-01-26T06:46:37;101677.84;;;4.60;56.25
11648;BME280;5880;52.342;9.662;2023-01-26T06:49:04;101688.53;;;4.61;56.25
11648;BME280;5880;52.342;9.662;2023-01-26T06:51:45;101676.66;;;4.62;56.19
11648;BME280;5880;52.342;9.662;2023-01-26T06:54:12;101678.69;;;4.60;56.16
11648;BME280;5880;52.342;9.662;2023-01-26T06:56:39;101671.41;;;4.61;56.12
11648;BME280;5880;52.342;9.662;2023-01-26T06:59:05;101660.94;;;4.58;56.35
11648;BME280;5880;52.342;9.662;2023-01-26T07:01:42;101675.50;;;4.65;56.26
11648;BME280;5880;52.342;9.662;2023-01-26T07:04:09;101677.34;;;4.64;56.33
11648;BME280;5880;52.342;9.662;2023-01-26T07:06:35;101679.72;;;4.68;56.23
11648;BME280;5880;52.342;9.662;2023-01-26T07:09:00;101684.97;;;4.69;56.26
11648;BME280;5880;52.342;9.662;2023-01-26T07:11:26;101686.66;;;4.70;56.28
11648;BME280;5880;52.342;9.662;2023-01-26T07:13:54;101686.50;;;4.72;56.08
11648;BME280;5880;52.342;9.662;2023-01-26T07:16:20;101690.88;;;4.73;56.38
11648;BME280;5880;52.342;9.662;2023-01-26T07:18:45;101691.91;;;4.72;56.46
11648;BME280;5880;52.342;9.662;2023-01-26T07:21:16;101691.75;;;4.73;56.49
11648;BME280;5880;52.342;9.662;2023-01-26T07:23:44;101686.34;;;4.73;56.32
11648;BME280;5880;52.342;9.662;2023-01-26T07:26:10;101683.63;;;4.73;56.33
11648;BME280;5880;52.342;9.662;2023-01-26T07:28:37;101682.94;;;4.71;56.19
11648;BME280;5880;52.342;9.662;2023-01-26T07:31:05;101689.22;;;4.72;56.24
11648;BME280;5880;52.342;9.662;2023-01-26T07:33:32;101699.22;;;4.71;56.42
11648;BME280;5880;52.342;9.662;2023-01-26T07:35:59;101690.06;;;4.72;56.35
11648;BME280;5880;52.342;9.662;2023-01-26T07:38:26;101683.63;;;4.73;56.52
11648;BME280;5880;52.342;9.662;2023-01-26T07:40:53;101681.78;;;4.74;56.50
11648;BME280;5880;52.342;9.662;2023-01-26T07:43:19;101687.03;;;4.75;56.49
11648;BME280;5880;52.342;9.662;2023-01-26T07:45:51;101689.75;;;4.75;56.49
11648;BME280;5880;52.342;9.662;2023-01-26T07:48:22;101688.72;;;4.76;56.20
11648;BME280;5880;52.342;9.662;2023-01-26T07:50:48;101693.97;;;4.78;56.56
11648;BME280;5880;52.342;9.662;2023-01-26T07:53:15;101690.22;;;4.79;56.57
11648;BME280;5880;52.342;9.662;2023-01-26T07:55:44;101691.91;;;4.80;56.48
11648;BME280;5880;52.342;9.662;2023-01-26T07:58:11;101688.88;;;4.83;56.70
11648;BME280;5880;52.342;9.662;2023-01-26T08:00:38;101697.00;;;4.83;56.56
11648;BME280;5880;52.342;9.662;2023-01-26T08:03:04;101691.25;;;4.86;56.63
11648;BME280;5880;52.342;9.662;2023-01-26T08:05:31;101690.91;;;4.89;56.40
11648;BME280;5880;52.342;9.662;2023-01-26T08:07:58;101691.59;;;4.91;56.60
11648;BME280;5880;52.342;9.662;2023-01-26T08:10:25;101684.50;;;4.90;56.68
11648;BME280;5880;52.342;9.662;2023-01-26T08:12:51;101691.25;;;4.94;56.61
11648;BME280;5880;52.342;9.662;2023-01-26T08:15:16;101685.84;;;4.94;56.61
11648;BME280;5880;52.342;9.662;2023-01-26T08:17:42;101683.13;;;4.94;56.44
11648;BME280;5880;52.342;9.662;2023-01-26T08:20:08;101690.22;;;4.95;56.45
11648;BME280;5880;52.342;9.662;2023-01-26T08:22:34;101706.50;;;4.95;56.51
11648;BME280;5880;52.342;9.662;2023-01-26T08:25:00;101705.47;;;4.96;56.70
11648;BME280;5880;52.342;9.662;2023-01-26T08:27:25;101707.03;;;4.99;56.60
11648;BME280;5880;52.342;9.662;2023-01-26T08:29:51;101704.13;;;5.00;56.76
11648;BME280;5880;52.342;9.662;2023-01-26T08:32:17;101695.31;;;4.98;56.61
11648;BME280;5880;52.342;9.662;2023-01-26T08:34:42;101710.38;;;5.01;56.48
11648;BME280;5880;52.342;9.662;2023-01-26T08:37:08;101707.66;;;5.01;56.91
11648;BME280;5880;52.342;9.662;2023-01-26T08:39:34;101702.09;;;5.02;56.54
11648;BME280;5880;52.342;9.662;2023-01-26T08:41:59;101716.66;;;5.01;56.58
11648;BME280;5880;52.342;9.662;2023-01-26T08:44:25;101713.09;;;5.01;56.62
11648;BME280;5880;52.342;9.662;2023-01-26T08:46:50;101707.50;;;5.02;56.56
11648;BME280;5880;52.342;9.662;2023-01-26T08:49:16;101710.91;;;5.04;56.52
11648;BME280;5880;52.342;9.662;2023-01-26T08:51:42;101712.78;;;5.04;56.59
11648;BME280;5880;52.342;9.662;2023-01-26T08:54:07;101715.47;;;5.04;56.59
11648;BME280;5880;52.342;9.662;2023-01-26T08:56:33;101709.88;;;5.05;56.46
11648;BME280;5880;52.342;9.662;2023-01-26T08:58:59;101697.84;;;5.00;56.62
11648;BME280;5880;52.342;9.662;2023-01-26T09:01:25;101712.78;;;5.04;56.78
11648;BME280;5880;52.342;9.662;2023-01-26T09:03:51;101702.25;;;5.01;56.43
11648;BME280;5880;52.342;9.662;2023-01-26T09:06:18;101706.81;;;5.00;56.79
11648;BME280;5880;52.342;9.662;2023-01-26T09:08:44;101715.97;;;5.07;56.45
11648;BME280;5880;52.342;9.662;2023-01-26T09:11:10;101718.53;;;5.09;56.66
11648;BME280;5880;52.342;9.662;2023-01-26T09:13:37;101719.38;;;5.10;56.70
11648;BME280;5880;52.342;9.662;2023-01-26T09:16:12;101698.53;;;5.10;56.59
11648;BME280;5880;52.342;9.662;2023-01-26T09:18:39;101700.59;;;5.08;56.79
11648;BME280;5880;52.342;9.662;2023-01-26T09:21:07;101708.53;;;5.10;56.73
11648;BME280;5880;52.342;9.662;2023-01-26T09:23:34;101712.25;;;5.08;56.66
11648;BME280;5880;52.342;9.662;2023-01-26T09:26:01;101711.44;;;5.08;56.71
11648;BME280;5880;52.342;9.662;2023-01-26T09:28:28;101708.53;;;5.10;56.66
11648;BME280;5880;52.342;9.662;2023-01-26T09:30:54;101702.09;;;5.11;56.89
11648;BME280;5880;52.342;9.662;2023-01-26T09:33:20;101704.13;;;5.08;56.60
11648;BME280;5880;52.342;9.662;2023-01-26T09:35:48;101712.59;;;5.14;56.80
11648;BME280;5880;52.342;9.662;2023-01-26T09:38:14;101712.75;;;5.12;56.70
11648;BME280;5880;52.342;9.662;2023-01-26T09:43:50;101710.22;;;5.19;57.01
11648;BME280;5880;52.342;9.662;2023-01-26T09:46:42;101704.78;;;5.19;57.05
11648;BME280;5880;52.342;9.662;2023-01-26T09:49:28;101704.78;;;5.19;57.11
11648;BME280;5880;52.342;9.662;2023-01-26T09:52:04;101702.09;;;5.19;57.08
11648;BME280;5880;52.342;9.662;2023-01-26T09:54:54;101695.47;;;5.21;57.22
11648;BME280;5880;52.342;9.662;2023-01-26T09:57:50;101709.69;;;5.23;56.92
11648;BME280;5880;52.342;9.662;2023-01-26T10:03:46;101702.94;;;5.27;57.14
11648;BME280;5880;52.342;9.662;2023-01-26T10:06:29;101698.19;;;5.29;56.89
11648;BME280;5880;52.342;9.662;2023-01-26T10:09:01;101701.56;;;5.32;57.07
11648;BME280;5880;52.342;9.662;2023-01-26T10:11:43;101694.97;;;5.34;57.17
11648;BME280;5880;52.342;9.662;2023-01-26T10:14:18;101686.63;;;5.36;57.03
11648;BME280;5880;52.342;9.662;2023-01-26T10:16:48;101690.22;;;5.36;56.70
11648;BME280;5880;52.342;9.662;2023-01-26T10:19:38;101701.91;;;5.37;57.07
11648;BME280;5880;52.342;9.662;2023-01-26T10:22:15;101691.22;;;5.35;56.64
11648;BME280;5880;52.342;9.662;2023-01-26T10:24:48;101688.50;;;5.35;56.77
11648;BME280;5880;52.342;9.662;2023-01-26T10:27:15;101691.06;;;5.37;57.14
11648;BME280;5880;52.342;9.662;2023-01-26T10:29:40;101689.03;;;5.39;56.76
11648;BME280;5880;52.342;9.662;2023-01-26T10:32:13;101687.84;;;5.41;57.12
11648;BME280;5880;52.342;9.662;2023-01-26T10:34:39;101685.97;;;5.42;56.94
11648;BME280;5880;52.342;9.662;2023-01-26T10:37:27;101683.09;;;5.43;56.87
11648;BME280;5880;52.342;9.662;2023-01-26T10:40:06;101675.78;;;5.44;57.02
11648;BME280;5880;52.342;9.662;2023-01-26T10:42:34;101673.75;;;5.46;57.54
11648;BME280;5880;52.342;9.662;2023-01-26T10:45:04;101664.44;;;5.48;57.35
11648;BME280;5880;52.342;9.662;2023-01-26T10:47:30;101651.88;;;5.47;56.89
11648;BME280;5880;52.342;9.662;2023-01-26T10:50:21;101660.00;;;5.56;57.16
11648;BME280;5880;52.342;9.662;2023-01-26T10:53:03;101648.63;;;5.52;57.21
11648;BME280;5880;52.342;9.662;2023-01-26T10:55:31;101656.09;;;5.58;57.04
11648;BME280;5880;52.342;9.662;2023-01-26T10:57:58;101662.88;;;5.62;57.17
11648;BME280;5880;52.342;9.662;2023-01-26T11:00:29;101659.78;;;5.65;57.44
11648;BME280;5880;52.342;9.662;2023-01-26T11:03:15;101644.19;;;5.67;57.30
11648;BME280;5880;52.342;9.662;2023-01-26T11:05:42;101652.16;;;5.69;57.46
11648;BME280;5880;52.342;9.662;2023-01-26T11:08:35;101648.25;;;5.71;57.38
11648;BME280;5880;52.342;9.662;2023-01-26T11:11:03;101654.69;;;5.70;57.05
11648;BME280;5880;52.342;9.662;2023-01-26T11:13:29;101645.69;;;5.70;57.09
11648;BME280;5880;52.342;9.662;2023-01-26T11:16:20;101651.13;;;5.70;56.85
11648;BME280;5880;52.342;9.662;2023-01-26T11:18:55;101644.34;;;5.66;56.89
11648;BME280;5880;52.342;9.662;2023-01-26T11:21:52;101640.44;;;5.68;57.34
11648;BME280;5880;52.342;9.662;2023-01-26T11:27:31;101632.81;;;5.64;56.93
11648;BME280;5880;52.342;9.662;2023-01-26T11:30:16;101630.31;;;5.62;57.19
11648;BME280;5880;52.342;9.662;2023-01-26T11:32:58;101638.75;;;5.67;57.44
11648;BME280;5880;52.342;9.662;2023-01-26T11:38:42;101635.69;;;5.70;56.80
11648;BME280;5880;52.342;9.662;2023-01-26T11:41:23;101636.88;;;5.68;57.03
11648;BME280;5880;52.342;9.662;2023-01-26T11:44:08;101630.63;;;5.67;57.12
11648;BME280;5880;52.342;9.662;2023-01-26T11:49:54;101619.63;;;5.69;57.32
11648;BME280;5880;52.342;9.662;2023-01-26T11:52:56;101608.56;;;5.70;57.46
11648;BME280;5880;52.342;9.662;2023-01-26T11:55:39;101616.38;;;5.74;57.49
11648;BME280;5880;52.342;9.662;2023-01-26T11:58:28;101602.97;;;5.72;57.46
11648;BME280;5880;52.342;9.662;2023-01-26T12:01:01;101611.25;;;5.79;57.01
11648;BME280;5880;52.342;9.662;2023-01-26T12:03:48;101618.19;;;5.81;57.33
11648;BME280;5880;52.342;9.662;2023-01-26T12:09:03;101622.78;;;5.81;57.29
11648;BME280;5880;52.342;9.662;2023-01-26T12:11:34;101613.78;;;5.80;56.78
11648;BME280;5880;52.342;9.662;2023-01-26T12:14:20;101612.78;;;5.81;56.90
11648;BME280;5880;52.342;9.662;2023-01-26T12:22:45;101602.44;;;5.77;57.24
11648;BME280;5880;52.342;9.662;2023-01-26T12:25:40;101597.03;;;5.77;57.11
11648;BME280;5880;52.342;9.662;2023-01-26T12:28:33;101601.59;;;5.76;57.35
11648;BME280;5880;52.342;9.662;2023-01-26T12:31:15;101600.09;;;5.74;57.37
11648;BME280;5880;52.342;9.662;2023-01-26T12:33:45;101601.94;;;5.73;56.97
11648;BME280;5880;52.342;9.662;2023-01-26T12:42:34;101592.28;;;5.70;57.20
11648;BME280;5880;52.342;9.662;2023-01-26T12:45:14;101588.56;;;5.71;57.02
11648;BME280;5880;52.342;9.662;2023-01-26T12:48:08;101568.25;;;5.67;57.34
11648;BME280;5880;52.342;9.662;2023-01-26T12:50:49;101577.72;;;5.71;57.47
11648;BME280;5880;52.342;9.662;2023-01-26T12:53:34;101573.28;;;5.70;57.25
11648;BME280;5880;52.342;9.662;2023-01-26T12:56:24;101571.63;;;5.69;57.02
11648;BME280;5880;52.342;9.662;2023-01-26T12:58:55;101575.34;;;5.68;57.07
11648;BME280;5880;52.342;9.662;2023-01-26T13:01:26;101570.94;;;5.67;57.44
11648;BME280;5880;52.342;9.662;2023-01-26T13:04:10;101565.34;;;5.69;57.52
11648;BME280;5880;52.342;9.662;2023-01-26T13:06:36;101569.91;;;5.68;57.38
11648;BME280;5880;52.342;9.662;2023-01-26T13:09:24;101571.41;;;5.71;57.15
11648;BME280;5880;52.342;9.662;2023-01-26T13:11:54;101561.59;;;5.70;57.02
11648;BME280;5880;52.342;9.662;2023-01-26T13:14:58;101568.91;;;5.69;57.47
11648;BME280;5880;52.342;9.662;2023-01-26T13:19:54;101557.75;;;5.64;57.06
11648;BME280;5880;52.342;9.662;2023-01-26T13:28:12;101560.25;;;5.74;57.66
11648;BME280;5880;52.342;9.662;2023-01-26T13:30:44;101555.66;;;5.75;57.36
11648;BME280;5880;52.342;9.662;2023-01-26T13:33:22;101549.84;;;5.78;57.28
11648;BME280;5880;52.342;9.662;2023-01-26T13:35:50;101556.13;;;5.78;57.70
11648;BME280;5880;52.342;9.662;2023-01-26T13:40:48;101555.97;;;5.80;57.50
11648;BME280;5880;52.342;9.662;2023-01-26T13:46:20;101558.31;;;5.83;57.30
11648;BME280;5880;52.342;9.662;2023-01-26T13:48:52;101560.00;;;5.84;57.35
11648;BME280;5880;52.342;9.662;2023-01-26T13:51:25;101548.50;;;5.82;57.61
11648;BME280;5880;52.342;9.662;2023-01-26T13:54:06;101556.09;;;5.86;57.46
11648;BME280;5880;52.342;9.662;2023-01-26T13:56:41;101558.31;;;5.83;57.70
11648;BME280;5880;52.342;9.662;2023-01-26T13:59:15;101562.56;;;5.85;57.44
11648;BME280;5880;52.342;9.662;2023-01-26T14:01:49;101559.66;;;5.87;57.42
11648;BME280;5880;52.342;9.662;2023-01-26T14:09:31;101557.97;;;5.86;57.45
11648;BME280;5880;52.342;9.662;2023-01-26T14:12:03;101571.34;;;5.87;57.39
11648;BME280;5880;52.342;9.662;2023-01-26T14:14:35;101563.56;;;5.84;57.14
11648;BME280;5880;52.342;9.662;2023-01-26T14:17:08;101569.50;;;5.88;57.29
11648;BME280;5880;52.342;9.662;2023-01-26T14:19:48;101572.22;;;5.88;57.44
11648;BME280;5880;52.342;9.662;2023-01-26T14:22:14;101579.47;;;5.87;57.38
11648;BME280;5880;52.342;9.662;2023-01-26T14:24:40;101579.47;;;5.87;57.29